Time;durP1;ratioP1;P1;durP2;ratioP2;P2;SDS_P1;SDS_P2;PMS_P1;PMS_P2;Temp;Humidity;BMP_temperature;BMP_pressure;BME280_temperature;BME280_humidity;BME280_pressure;Samples;Min_cycle;Max_cycle;Signal;HPM_P1;HPM_P2
2020/12/04 00:02:31;;;;;;;16.23;9.43;;;;;;;4.64;79.22;100805.31;6270890;28;20201;-79
2020/12/04 00:05:36;;;;;;;20.03;9.13;;;;;;;4.18;80.48;100739.59;6256640;28;20293;-78
2020/12/04 00:08:40;;;;;;;21.70;10.03;;;;;;;4.51;81.30;100805.06;6267976;28;20650;-79
2020/12/04 00:11:43;;;;;;;18.63;9.30;;;;;;;4.60;80.98;100798.56;6271616;28;20669;-78
2020/12/04 00:14:47;;;;;;;18.20;9.70;;;;;;;4.50;81.31;100792.56;6270294;28;20200;-78
2020/12/04 00:17:51;;;;;;;16.53;9.37;;;;;;;4.53;82.20;100803.00;6272110;28;20188;-78
2020/12/04 00:20:54;;;;;;;16.10;8.77;;;;;;;4.45;82.87;100821.97;6269410;28;20315;-79
2020/12/04 00:23:58;;;;;;;14.00;9.83;;;;;;;4.39;82.15;100806.50;6269279;28;20654;-78
2020/12/04 00:27:02;;;;;;;16.57;9.40;;;;;;;4.16;82.98;100795.63;6265722;28;20208;-79
2020/12/04 00:30:08;;;;;;;16.87;9.30;;;;;;;4.25;84.39;100832.38;6261423;28;20471;-78
2020/12/04 00:33:20;;;;;;;14.27;9.43;;;;;;;4.28;84.41;100839.28;6243645;28;20233;-81
2020/12/04 00:36:24;;;;;;;20.73;10.40;;;;;;;4.05;85.21;100814.94;6240472;28;20567;-78
2020/12/04 00:39:28;;;;;;;18.80;10.33;;;;;;;4.04;86.75;100823.19;6260936;28;20634;-78
2020/12/04 00:42:31;;;;;;;18.33;10.27;;;;;;;3.92;87.50;100830.00;6267763;28;20203;-78
2020/12/04 00:45:34;;;;;;;16.23;10.27;;;;;;;3.96;87.15;100825.91;6257981;28;20223;-81
2020/12/04 00:48:39;;;;;;;18.03;10.27;;;;;;;3.87;88.18;100832.38;6266931;28;20238;-78
2020/12/04 00:51:42;;;;;;;16.50;9.50;;;;;;;4.06;86.69;100826.56;6247981;28;20211;-79
2020/12/04 00:54:49;;;;;;;16.97;10.40;;;;;;;3.77;88.74;100836.09;6269583;28;20201;-78
2020/12/04 00:57:53;;;;;;;15.93;9.47;;;;;;;3.98;86.58;100832.00;6245029;28;20805;-79
2020/12/04 01:00:57;;;;;;;14.63;9.80;;;;;;;3.89;87.32;100820.38;6245680;28;20661;-79
2020/12/04 01:04:01;;;;;;;16.57;10.07;;;;;;;3.75;88.48;100824.63;6265510;28;20278;-79
2020/12/04 01:07:06;;;;;;;17.60;9.40;;;;;;;3.84;88.29;100809.28;6268194;28;20252;-78
2020/12/04 01:10:11;;;;;;;14.50;9.03;;;;;;;3.80;87.32;100781.78;6266999;28;20204;-78
2020/12/04 01:13:25;;;;;;;12.70;8.33;;;;;;;3.76;88.54;100799.34;6275141;28;20322;-79
2020/12/04 01:16:29;;;;;;;10.50;7.80;;;;;;;3.79;88.41;100793.63;6272531;28;20268;-78
2020/12/04 01:19:33;;;;;;;10.00;7.30;;;;;;;3.67;89.04;100784.19;6272702;28;20297;-79
2020/12/04 01:22:37;;;;;;;9.33;6.97;;;;;;;3.39;88.81;100710.09;6274758;28;20687;-79
2020/12/04 01:25:41;;;;;;;8.10;6.50;;;;;;;3.61;88.43;100771.41;6267300;28;20712;-79
2020/12/04 01:28:44;;;;;;;6.83;5.83;;;;;;;3.80;87.69;100779.09;6280723;28;20961;-79
2020/12/04 01:31:47;;;;;;;6.53;5.33;;;;;;;3.91;87.96;100771.63;6278314;28;20198;-80
2020/12/04 01:34:52;;;;;;;5.63;4.43;;;;;;;3.79;88.23;100750.44;6284137;28;20192;-81
2020/12/04 01:37:55;;;;;;;6.17;4.53;;;;;;;3.40;88.69;100716.34;6275687;28;20584;-79
2020/12/04 01:40:59;;;;;;;4.17;3.73;;;;;;;3.82;89.01;100764.59;6261233;28;20192;-81
2020/12/04 01:44:05;;;;;;;5.10;4.60;;;;;;;3.59;90.52;100759.97;6275931;28;20281;-81
2020/12/04 01:47:10;;;;;;;5.97;4.07;;;;;;;3.38;90.71;100742.66;6273199;28;20216;-79
2020/12/04 01:50:16;;;;;;;4.33;3.70;;;;;;;3.68;90.33;100758.91;6261002;28;20219;-79
2020/12/04 01:53:23;;;;;;;3.77;3.40;;;;;;;3.59;89.42;100706.00;6274678;28;20576;-80
2020/12/04 01:56:37;;;;;;;3.17;3.00;;;;;;;3.85;89.42;100750.75;6277780;28;20213;-80
2020/12/04 01:59:40;;;;;;;3.20;2.97;;;;;;;3.78;89.33;100747.91;6287546;28;20199;-80
2020/12/04 02:02:44;;;;;;;3.70;3.37;;;;;;;3.92;89.49;100743.63;6277547;28;20203;-80
2020/12/04 02:05:58;;;;;;;2.80;2.60;;;;;;;3.68;89.19;100704.94;6290900;28;20246;-79
2020/12/04 02:09:05;;;;;;;2.60;2.50;;;;;;;3.76;89.25;100737.28;6273238;28;20203;-78
2020/12/04 02:12:17;;;;;;;2.63;2.50;;;;;;;3.68;91.27;100737.31;6275011;28;20198;-78
2020/12/04 02:15:21;;;;;;;2.47;2.47;;;;;;;3.62;91.67;100738.00;6273489;28;20198;-79
2020/12/04 02:18:27;;;;;;;2.30;2.30;;;;;;;3.83;90.85;100739.28;6268580;28;20324;-79
2020/12/04 02:21:33;;;;;;;2.77;2.67;;;;;;;3.90;90.02;100740.25;6270718;28;20285;-79
2020/12/04 02:24:39;;;;;;;2.27;2.17;;;;;;;3.80;90.50;100726.97;6273533;28;20242;-79
2020/12/04 02:27:47;;;;;;;2.63;2.53;;;;;;;3.74;91.83;100725.84;6276730;28;20292;-81
2020/12/04 02:30:50;;;;;;;2.20;2.10;;;;;;;3.53;90.54;100668.94;6276788;28;20299;-79
2020/12/04 02:33:54;;;;;;;2.43;2.30;;;;;;;3.77;92.24;100724.63;6263830;28;20607;-78
2020/12/04 02:36:58;;;;;;;2.43;2.33;;;;;;;3.60;92.50;100696.03;6263130;28;20544;-81
2020/12/04 02:40:05;;;;;;;2.27;2.17;;;;;;;3.44;91.70;100659.19;6280428;28;20252;-78
2020/12/04 02:43:14;;;;;;;2.40;2.30;;;;;;;3.72;92.99;100717.06;6278654;28;20272;-81
2020/12/04 02:46:17;;;;;;;2.70;2.60;;;;;;;3.63;92.48;100685.75;6281021;28;20221;-80
2020/12/04 02:49:26;;;;;;;2.20;2.10;;;;;;;3.89;92.14;100690.00;6278185;28;20603;-81
2020/12/04 02:52:31;;;;;;;1.90;1.90;;;;;;;3.82;91.68;100699.81;6279485;28;20191;-79
2020/12/04 02:55:34;;;;;;;2.20;2.20;;;;;;;4.05;91.54;100706.09;6282518;28;20204;-79
2020/12/04 02:58:38;;;;;;;2.90;2.20;;;;;;;4.02;91.53;100698.34;6276800;28;20621;-79
2020/12/04 03:01:42;;;;;;;2.87;2.20;;;;;;;4.09;91.23;100685.81;6255932;28;20529;-79
2020/12/04 03:04:45;;;;;;;2.27;2.17;;;;;;;4.07;91.92;100693.25;6274381;28;20570;-79
2020/12/04 03:07:49;;;;;;;2.63;2.40;;;;;;;4.08;91.71;100695.78;6269351;28;20219;-78
2020/12/04 03:10:52;;;;;;;2.00;1.90;;;;;;;4.13;91.40;100687.16;6272274;28;20372;-79
2020/12/04 03:13:56;;;;;;;2.73;2.13;;;;;;;4.10;92.06;100693.75;6272302;28;21478;-79
2020/12/04 03:16:59;;;;;;;1.80;1.80;;;;;;;4.10;92.17;100703.69;6279647;28;20273;-78
2020/12/04 03:20:04;;;;;;;2.20;2.00;;;;;;;3.99;93.38;100696.00;6268542;28;20193;-78
2020/12/04 03:23:12;;;;;;;2.00;1.90;;;;;;;4.12;92.88;100689.00;6270109;28;20187;-78
2020/12/04 03:26:16;;;;;;;2.20;2.00;;;;;;;4.08;92.45;100689.53;6270731;28;20249;-79
2020/12/04 03:29:19;;;;;;;1.90;1.87;;;;;;;4.14;93.35;100683.41;6274870;28;20485;-79
2020/12/04 03:32:23;;;;;;;2.10;2.00;;;;;;;3.93;94.62;100688.63;6271599;28;20207;-80
2020/12/04 03:35:27;;;;;;;1.60;1.50;;;;;;;4.10;91.47;100674.00;6271701;28;20684;-80
2020/12/04 03:38:32;;;;;;;1.37;1.37;;;;;;;4.15;91.75;100679.72;6256312;28;20249;-83
2020/12/04 03:41:35;;;;;;;1.43;1.43;;;;;;;4.13;91.71;100679.91;6276538;28;20248;-80
2020/12/04 03:44:39;;;;;;;1.50;1.40;;;;;;;4.07;92.59;100683.31;6264664;28;20290;-80
2020/12/04 03:47:43;;;;;;;1.30;1.20;;;;;;;4.05;93.38;100689.91;6270216;28;20225;-79
2020/12/04 03:50:46;;;;;;;1.20;1.20;;;;;;;3.97;94.41;100690.78;6268154;28;20223;-78
2020/12/04 03:53:50;;;;;;;2.53;1.17;;;;;;;4.19;93.04;100686.41;6254799;28;20515;-79
2020/12/04 03:56:54;;;;;;;1.10;1.10;;;;;;;4.42;92.21;100681.84;6269849;28;20552;-78
2020/12/04 03:59:57;;;;;;;1.50;1.40;;;;;;;4.32;92.27;100681.25;6243077;28;20683;-79
2020/12/04 04:03:00;;;;;;;1.20;1.20;;;;;;;4.40;92.50;100678.50;6270329;28;20306;-80
2020/12/04 04:06:05;;;;;;;3.47;1.40;;;;;;;4.30;93.05;100675.19;6258784;28;20231;-80
2020/12/04 04:09:10;;;;;;;2.50;1.30;;;;;;;4.27;94.48;100684.50;6272377;28;20195;-78
2020/12/04 04:12:18;;;;;;;3.50;1.40;;;;;;;4.54;92.88;100677.72;6269374;28;20210;-78
2020/12/04 04:15:21;;;;;;;1.40;1.40;;;;;;;4.31;93.49;100637.19;6267197;28;20206;-80
2020/12/04 04:18:28;;;;;;;1.87;1.30;;;;;;;4.49;94.16;100682.84;6266760;28;20724;-79
2020/12/04 04:21:31;;;;;;;3.27;1.57;;;;;;;4.57;93.72;100669.22;6267315;28;20547;-78
2020/12/04 04:24:35;;;;;;;1.50;1.40;;;;;;;4.70;92.24;100682.97;6228770;28;20585;-78
2020/12/04 04:27:39;;;;;;;2.40;1.77;;;;;;;4.60;93.84;100678.84;6237103;28;20219;-78
2020/12/04 04:30:43;;;;;;;1.70;1.60;;;;;;;4.63;93.28;100679.31;6245862;28;20658;-80
2020/12/04 04:33:46;;;;;;;3.83;1.50;;;;;;;4.21;93.75;100604.22;6245959;28;20199;-79
2020/12/04 04:36:50;;;;;;;2.33;1.90;;;;;;;4.78;93.16;100666.66;6244841;28;20207;-79
2020/12/04 04:39:54;;;;;;;1.70;1.60;;;;;;;4.72;92.58;100675.53;6258624;28;20329;-78
2020/12/04 04:43:09;;;;;;;4.10;1.63;;;;;;;4.69;93.93;100678.59;6250442;28;20574;-79
2020/12/04 04:46:31;;;;;;;2.10;2.00;;;;;;;4.75;92.79;100683.25;6244380;28;20696;-78
2020/12/04 04:49:40;;;;;;;2.80;2.00;;;;;;;4.81;92.50;100673.56;6266136;28;20250;-79
2020/12/04 04:52:45;;;;;;;1.73;1.63;;;;;;;4.90;91.50;100675.19;6256975;28;20220;-79
2020/12/04 04:55:51;;;;;;;1.67;1.67;;;;;;;4.70;92.88;100647.81;6242918;28;20516;-78
2020/12/04 04:58:54;;;;;;;2.00;1.80;;;;;;;4.96;91.81;100664.47;6245374;28;20362;-79
2020/12/04 05:01:58;;;;;;;2.10;1.90;;;;;;;4.87;92.14;100665.59;6245079;28;20195;-79
2020/12/04 05:05:01;;;;;;;2.43;2.33;;;;;;;4.79;92.42;100662.97;6242893;28;20214;-80
2020/12/04 05:08:12;;;;;;;2.33;2.23;;;;;;;4.83;93.21;100664.25;6235706;28;20224;-79
2020/12/04 05:11:17;;;;;;;5.00;2.53;;;;;;;4.78;92.65;100666.66;6242713;28;20291;-79
2020/12/04 05:14:23;;;;;;;3.00;2.80;;;;;;;4.85;92.36;100673.00;6253904;28;20207;-78
2020/12/04 05:17:26;;;;;;;3.67;2.43;;;;;;;4.86;93.29;100673.84;6257631;28;20211;-78
2020/12/04 05:20:30;;;;;;;2.67;2.50;;;;;;;4.96;91.87;100669.88;6252125;28;20202;-78
2020/12/04 05:23:35;;;;;;;2.67;2.50;;;;;;;5.20;90.44;100665.22;6254195;28;20218;-78
2020/12/04 05:26:39;;;;;;;2.93;2.83;;;;;;;5.20;90.31;100666.06;6261324;28;20227;-80
2020/12/04 05:29:50;;;;;;;4.30;3.00;;;;;;;4.91;92.00;100672.28;6258568;28;20226;-79
2020/12/04 05:33:01;;;;;;;3.10;2.80;;;;;;;4.79;92.25;100657.56;6274796;28;20305;-78
2020/12/04 05:36:05;;;;;;;3.93;3.53;;;;;;;4.80;91.88;100659.22;6272158;28;20235;-80
2020/12/04 05:39:09;;;;;;;3.53;3.07;;;;;;;4.94;92.00;100668.38;6276095;28;20225;-78
2020/12/04 05:42:32;;;;;;;3.30;3.20;;;;;;;5.01;91.89;100678.25;6277011;28;20198;-79
2020/12/04 05:45:35;;;;;;;3.80;3.60;;;;;;;5.03;92.73;100670.81;6251591;28;20326;-78
2020/12/04 05:48:38;;;;;;;4.23;3.80;;;;;;;4.78;93.26;100653.16;6277764;28;20373;-78
2020/12/04 05:51:41;;;;;;;8.70;3.80;;;;;;;4.82;92.37;100623.91;6277252;28;20217;-80
2020/12/04 05:54:47;;;;;;;4.33;3.77;;;;;;;5.01;93.52;100699.91;6261618;28;20276;-79
2020/12/04 05:57:54;;;;;;;4.50;4.20;;;;;;;4.97;93.13;100676.13;6275107;28;20358;-79
2020/12/04 06:01:03;;;;;;;6.80;4.80;;;;;;;5.11;92.98;100698.81;6249209;28;20289;-78
2020/12/04 06:04:10;;;;;;;4.70;4.30;;;;;;;4.85;92.51;100673.00;6271847;28;20287;-79
2020/12/04 06:07:24;;;;;;;8.37;5.50;;;;;;;5.06;92.75;100697.47;6270376;28;20293;-77
2020/12/04 06:10:29;;;;;;;8.80;5.73;;;;;;;5.14;91.98;100703.81;6255387;28;20290;-79
2020/12/04 06:13:35;;;;;;;7.13;5.77;;;;;;;5.17;90.81;100709.72;6273352;28;20710;-78
2020/12/04 06:16:39;;;;;;;8.20;5.50;;;;;;;5.18;91.34;100695.19;6270817;28;20290;-80
2020/12/04 06:19:45;;;;;;;8.30;5.83;;;;;;;5.42;89.92;100703.00;6276958;28;20244;-79
2020/12/04 06:23:04;;;;;;;10.07;6.07;;;;;;;4.78;90.41;100626.13;6273717;28;20207;-79
2020/12/04 06:26:10;;;;;;;6.30;5.80;;;;;;;5.20;92.40;100706.63;6268590;28;20710;-79
2020/12/04 06:29:15;;;;;;;6.37;5.77;;;;;;;5.26;91.29;100702.34;6269295;28;20380;-81
2020/12/04 06:32:34;;;;;;;7.93;5.90;;;;;;;5.19;91.32;100690.63;6270272;28;20194;-79
2020/12/04 06:35:42;;;;;;;7.83;6.03;;;;;;;5.25;91.40;100714.19;6268276;28;20225;-79
2020/12/04 06:38:48;;;;;;;10.97;6.83;;;;;;;5.34;90.47;100705.78;6269821;28;20215;-78
2020/12/04 06:41:52;;;;;;;10.17;6.50;;;;;;;5.27;90.97;100706.72;6269111;28;20210;-78
2020/12/04 06:44:56;;;;;;;12.63;6.80;;;;;;;5.38;91.19;100717.09;6261803;28;20680;-76
2020/12/04 06:48:11;;;;;;;8.93;6.90;;;;;;;5.25;90.61;100716.91;6267242;28;20221;-77
2020/12/04 06:51:18;;;;;;;13.60;6.53;;;;;;;5.43;89.15;100701.13;6269778;28;20227;-77
2020/12/04 06:54:22;;;;;;;8.97;7.00;;;;;;;5.50;89.50;100731.81;6244675;28;20290;-77
2020/12/04 06:57:25;;;;;;;9.67;7.13;;;;;;;5.40;89.18;100733.97;6269251;28;20207;-78
2020/12/04 07:00:30;;;;;;;10.67;7.27;;;;;;;5.30;90.37;100698.25;6268390;28;20250;-78
2020/12/04 07:03:39;;;;;;;10.13;7.03;;;;;;;5.35;90.01;100709.34;6251947;28;20199;-78
2020/12/04 07:06:43;;;;;;;11.53;7.27;;;;;;;5.38;89.77;100722.50;6269224;28;20223;-79
2020/12/04 07:09:52;;;;;;;10.60;7.53;;;;;;;5.49;89.16;100736.44;6249253;28;20203;-78
2020/12/04 07:12:58;;;;;;;11.20;7.17;;;;;;;5.53;88.34;100742.28;6268695;28;20197;-77
2020/12/04 07:16:02;;;;;;;8.67;7.43;;;;;;;5.47;88.33;100726.81;6272907;28;20598;-79
2020/12/04 07:19:07;;;;;;;9.53;7.67;;;;;;;5.53;89.13;100747.69;6277984;28;20257;-79
2020/12/04 07:22:10;;;;;;;12.73;8.53;;;;;;;5.50;89.33;100748.91;6280104;28;20293;-78
2020/12/04 07:25:16;;;;;;;11.53;8.27;;;;;;;5.54;89.10;100749.38;6260887;28;20235;-78
2020/12/04 07:28:22;;;;;;;10.50;7.77;;;;;;;5.48;88.35;100718.50;6269914;28;20214;-79
2020/12/04 07:31:27;;;;;;;15.23;8.13;;;;;;;5.49;89.60;100739.13;6252748;28;20201;-79
2020/12/04 07:34:35;;;;;;;13.70;8.60;;;;;;;5.54;89.90;100750.22;6278375;28;20233;-79
2020/12/04 07:37:39;;;;;;;13.83;8.73;;;;;;;5.58;90.05;100756.09;6297036;28;20187;-80
2020/12/04 07:40:42;;;;;;;17.13;8.27;;;;;;;5.47;90.21;100721.41;6277874;28;20226;-79
2020/12/04 07:43:47;;;;;;;11.13;8.23;;;;;;;5.77;89.01;100763.66;6269052;28;20696;-79
2020/12/04 07:46:59;;;;;;;13.70;8.33;;;;;;;5.82;88.95;100765.81;6271511;28;20211;-80
2020/12/04 07:50:03;;;;;;;13.43;8.97;;;;;;;5.73;90.14;100770.47;6263222;28;20223;-81
2020/12/04 07:53:12;;;;;;;13.20;8.97;;;;;;;5.69;89.93;100777.28;6275853;28;20202;-81
2020/12/04 07:56:20;;;;;;;11.63;8.73;;;;;;;5.84;89.79;100766.44;6260416;28;20207;-76
2020/12/04 07:59:26;;;;;;;13.57;8.83;;;;;;;5.69;89.93;100752.94;6275911;28;20241;-79
2020/12/04 08:02:31;;;;;;;14.43;8.93;;;;;;;5.75;90.32;100779.25;6247295;28;20215;-79
2020/12/04 08:05:39;;;;;;;15.23;9.20;;;;;;;5.63;91.21;100780.72;6257957;28;20260;-78
2020/12/04 08:08:43;;;;;;;14.63;9.93;;;;;;;5.18;93.19;100753.84;6266754;28;20207;-79
2020/12/04 08:11:51;;;;;;;13.90;8.77;;;;;;;5.27;93.47;100737.31;6272466;28;20226;-80
2020/12/04 08:14:55;;;;;;;12.40;8.43;;;;;;;5.36;93.63;100779.50;6248337;28;20568;-79
2020/12/04 08:18:03;;;;;;;12.73;8.60;;;;;;;5.47;92.57;100759.28;6269046;28;20252;-76
2020/12/04 08:21:13;;;;;;;11.37;8.33;;;;;;;5.42;92.22;100753.56;6284991;28;20193;-81
2020/12/04 08:24:22;;;;;;;13.83;8.17;;;;;;;5.61;91.53;100785.50;6285164;28;20240;-80
2020/12/04 08:27:26;;;;;;;10.30;8.03;;;;;;;5.58;91.68;100781.28;6283359;28;20213;-80
2020/12/04 08:30:30;;;;;;;14.03;8.83;;;;;;;5.61;91.29;100782.78;6267383;28;20669;-77
2020/12/04 08:34:02;;;;;;;11.83;9.20;;;;;;;5.36;93.27;100784.94;6267193;28;20513;-77
2020/12/04 08:37:12;;;;;;;12.93;7.80;;;;;;;5.46;91.20;100763.00;6270803;28;20198;-79
2020/12/04 08:40:24;;;;;;;10.20;7.43;;;;;;;5.47;90.28;100770.94;6273088;28;20265;-80
2020/12/04 08:43:30;;;;;;;8.20;7.23;;;;;;;5.27;91.86;100774.34;6271281;28;20199;-79
2020/12/04 08:46:37;;;;;;;11.97;6.97;;;;;;;5.45;91.64;100782.97;6264680;28;20492;-81
2020/12/04 08:49:49;;;;;;;8.33;6.83;;;;;;;5.34;92.28;100788.84;6268343;28;20260;-79
2020/12/04 08:52:54;;;;;;;7.63;6.60;;;;;;;5.38;91.69;100779.31;6277106;28;20201;-78
2020/12/04 08:55:59;;;;;;;26.63;8.20;;;;;;;5.38;93.33;100787.44;6271489;28;20200;-78
2020/12/04 08:59:03;;;;;;;26.50;8.57;;;;;;;5.83;94.09;100786.44;6264576;28;20223;-80
2020/12/04 09:02:09;;;;;;;10.97;7.30;;;;;;;5.88;90.92;100784.88;6254027;28;20258;-79
2020/12/04 09:05:18;;;;;;;9.80;6.60;;;;;;;5.64;92.76;100774.31;6258058;28;20202;-79
2020/12/04 09:08:22;;;;;;;10.23;6.97;;;;;;;5.86;92.00;100781.50;6270271;28;20673;-80
2020/12/04 09:11:26;;;;;;;10.83;6.80;;;;;;;5.85;92.19;100779.84;6281987;28;20659;-78
2020/12/04 09:14:30;;;;;;;10.47;6.87;;;;;;;5.94;91.60;100776.00;6263524;28;20226;-80
2020/12/04 09:17:33;;;;;;;8.57;6.60;;;;;;;5.76;92.92;100775.50;6285729;28;20275;-80
2020/12/04 09:20:38;;;;;;;6.93;5.93;;;;;;;5.53;94.42;100774.75;6282313;28;20538;-79
2020/12/04 09:23:42;;;;;;;6.53;5.70;;;;;;;5.64;94.21;100777.00;6250303;28;20210;-80
2020/12/04 09:26:45;;;;;;;4.60;4.30;;;;;;;5.67;92.77;100771.22;6277293;28;20198;-80
2020/12/04 09:29:48;;;;;;;3.80;3.50;;;;;;;5.78;92.73;100762.63;6279775;28;20299;-79
2020/12/04 09:32:52;;;;;;;4.00;3.70;;;;;;;5.80;92.13;100760.59;6270272;28;20194;-77
2020/12/04 09:35:59;;;;;;;4.00;3.70;;;;;;;5.64;93.04;100767.03;6271242;28;20212;-78
2020/12/04 09:39:02;;;;;;;3.33;3.13;;;;;;;5.86;92.66;100762.56;6271007;28;20661;-80
2020/12/04 09:42:11;;;;;;;3.27;3.10;;;;;;;5.48;93.60;100744.72;6253524;28;20197;-78
2020/12/04 09:45:15;;;;;;;3.57;3.27;;;;;;;5.69;92.22;100755.63;6273714;28;20684;-82
2020/12/04 09:48:24;;;;;;;3.90;3.63;;;;;;;5.76;92.36;100769.25;6269413;28;20752;-80
2020/12/04 09:51:30;;;;;;;3.73;3.53;;;;;;;5.70;92.60;100776.25;6257635;28;20289;-79
2020/12/04 09:54:36;;;;;;;4.10;3.80;;;;;;;5.61;92.97;100753.88;6270925;28;20192;-80
2020/12/04 09:57:39;;;;;;;4.83;4.40;;;;;;;5.86;91.96;100764.41;6271570;28;20212;-76
2020/12/04 10:00:43;;;;;;;4.53;4.17;;;;;;;5.71;93.13;100759.00;6265438;28;20221;-79
2020/12/04 10:03:57;;;;;;;4.30;4.00;;;;;;;5.57;94.12;100770.66;6278833;28;20195;-81
2020/12/04 10:07:02;;;;;;;4.37;3.97;;;;;;;5.63;93.63;100770.75;6277891;28;20220;-78
2020/12/04 10:10:06;;;;;;;5.17;4.67;;;;;;;5.61;94.00;100777.38;6278316;28;20215;-80
2020/12/04 10:13:12;;;;;;;4.93;4.40;;;;;;;5.66;93.05;100769.53;6273305;28;20201;-78
2020/12/04 10:16:18;;;;;;;5.67;5.07;;;;;;;5.48;93.75;100760.94;6272776;28;20192;-81
2020/12/04 10:19:22;;;;;;;5.97;4.37;;;;;;;5.28;95.01;100770.63;6279545;28;20265;-82
2020/12/04 10:22:27;;;;;;;5.90;3.90;;;;;;;5.48;93.98;100755.53;6234958;28;20605;-77
2020/12/04 10:25:31;;;;;;;5.33;3.70;;;;;;;5.55;93.37;100764.59;6240998;28;20231;-77
2020/12/04 10:28:34;;;;;;;4.20;3.83;;;;;;;5.52;92.62;100762.28;6271261;28;20252;-78
2020/12/04 10:31:38;;;;;;;5.43;3.63;;;;;;;5.74;91.57;100749.66;6266568;28;20202;-78
2020/12/04 10:34:41;;;;;;;4.10;3.77;;;;;;;5.60;92.76;100764.88;6262015;28;20201;-78
2020/12/04 10:37:46;;;;;;;4.00;3.60;;;;;;;5.66;92.88;100758.72;6268909;28;20198;-79
2020/12/04 10:40:49;;;;;;;4.07;3.77;;;;;;;5.69;91.72;100758.34;6273378;28;20201;-79
2020/12/04 10:43:52;;;;;;;3.30;3.20;;;;;;;5.78;91.52;100762.63;6269567;28;20277;-78
2020/12/04 10:46:56;;;;;;;6.17;3.37;;;;;;;5.80;91.26;100755.19;6270184;28;20266;-80
2020/12/04 10:49:59;;;;;;;4.40;4.00;;;;;;;5.59;92.33;100755.09;6276462;28;20254;-79
2020/12/04 10:53:06;;;;;;;3.83;3.63;;;;;;;5.68;92.35;100753.94;6268117;28;20277;-76
2020/12/04 10:56:14;;;;;;;4.43;3.97;;;;;;;5.48;94.01;100745.56;6265778;28;20551;-78
2020/12/04 10:59:17;;;;;;;7.37;4.47;;;;;;;4.86;94.50;100658.50;6264214;28;20579;-78
2020/12/04 11:02:26;;;;;;;4.37;4.07;;;;;;;5.68;92.94;100740.41;6260996;28;20303;-78
2020/12/04 11:05:37;;;;;;;4.57;4.17;;;;;;;5.70;92.80;100732.94;6243319;28;20242;-79
2020/12/04 11:08:42;;;;;;;4.00;3.70;;;;;;;5.80;92.04;100725.41;6251282;28;20233;-78
2020/12/04 11:11:47;;;;;;;4.97;4.30;;;;;;;5.66;93.83;100731.66;6264990;28;20204;-78
2020/12/04 11:14:50;;;;;;;4.43;4.07;;;;;;;5.60;93.69;100738.63;6266851;28;20689;-78
2020/12/04 11:17:53;;;;;;;6.60;4.03;;;;;;;5.58;93.65;100734.44;6263130;28;20200;-78
2020/12/04 11:20:56;;;;;;;4.17;3.87;;;;;;;5.78;93.14;100740.97;6264431;28;20486;-79
2020/12/04 11:24:02;;;;;;;4.83;3.93;;;;;;;5.72;92.79;100735.47;6266143;28;20258;-79
2020/12/04 11:27:07;;;;;;;3.30;3.20;;;;;;;5.69;92.15;100720.44;6266019;28;20626;-79
2020/12/04 11:30:16;;;;;;;3.13;3.03;;;;;;;5.46;92.28;100689.94;6268098;28;20210;-78
2020/12/04 11:33:30;;;;;;;3.27;3.17;;;;;;;5.76;92.25;100729.50;6268901;28;20198;-79
2020/12/04 11:36:34;;;;;;;3.50;3.20;;;;;;;5.58;92.62;100734.44;6260641;28;20203;-79
2020/12/04 11:39:40;;;;;;;4.33;4.07;;;;;;;5.61;92.67;100717.84;6268518;28;20266;-77
2020/12/04 11:42:44;;;;;;;6.87;3.90;;;;;;;5.43;93.77;100737.16;6251200;28;20206;-78
2020/12/04 11:45:48;;;;;;;4.10;3.90;;;;;;;5.67;92.23;100728.75;6264690;28;20206;-77
2020/12/04 11:48:51;;;;;;;4.03;3.80;;;;;;;5.66;91.89;100721.66;6265496;28;20450;-78
2020/12/04 11:51:55;;;;;;;4.30;4.00;;;;;;;5.69;91.14;100726.72;6255439;28;20205;-78
2020/12/04 11:54:59;;;;;;;3.87;3.67;;;;;;;5.50;91.85;100723.72;6265803;28;20608;-78
2020/12/04 11:58:04;;;;;;;5.40;3.70;;;;;;;5.57;91.86;100738.19;6256543;28;20242;-77
2020/12/04 12:01:10;;;;;;;4.60;4.23;;;;;;;5.68;92.34;100724.16;6245637;28;21241;-77
2020/12/04 12:04:18;;;;;;;5.17;4.20;;;;;;;5.47;93.39;100710.56;6242045;28;20540;-77
2020/12/04 12:07:21;;;;;;;4.90;4.07;;;;;;;5.39;93.05;100710.66;6247615;28;20462;-77
2020/12/04 12:10:26;;;;;;;4.97;3.67;;;;;;;5.69;91.70;100715.03;6255916;28;20330;-77
2020/12/04 12:13:30;;;;;;;3.87;3.53;;;;;;;5.59;91.69;100714.47;6263896;28;20295;-77
2020/12/04 12:16:34;;;;;;;3.83;3.63;;;;;;;5.48;93.09;100728.47;6263440;28;20671;-78
2020/12/04 12:19:39;;;;;;;4.27;3.97;;;;;;;5.60;91.68;100710.72;6267147;28;20223;-79
2020/12/04 12:22:43;;;;;;;3.70;3.50;;;;;;;5.69;90.58;100715.03;6266624;28;20203;-78
2020/12/04 12:25:50;;;;;;;3.33;3.23;;;;;;;5.76;90.39;100713.25;6235511;28;20606;-78
2020/12/04 12:28:53;;;;;;;4.60;3.73;;;;;;;5.49;91.63;100722.03;6241093;28;20447;-80
2020/12/04 12:31:56;;;;;;;4.17;3.73;;;;;;;5.46;91.65;100692.66;6239751;28;20638;-78
2020/12/04 12:35:01;;;;;;;4.40;3.70;;;;;;;5.69;90.33;100717.75;6234242;28;20188;-78
2020/12/04 12:38:06;;;;;;;3.50;3.30;;;;;;;5.69;90.16;100704.22;6239254;28;20226;-78
2020/12/04 12:41:11;;;;;;;3.37;3.20;;;;;;;5.69;89.34;100698.78;6240805;28;20249;-77
2020/12/04 12:44:16;;;;;;;3.60;3.33;;;;;;;5.58;89.64;100701.97;6240280;28;20190;-79
2020/12/04 12:47:19;;;;;;;3.50;3.30;;;;;;;5.59;89.07;100665.78;6240315;28;20202;-79
2020/12/04 12:50:22;;;;;;;2.90;2.70;;;;;;;5.76;88.38;100693.44;6240620;28;20289;-78
2020/12/04 12:53:26;;;;;;;3.53;3.23;;;;;;;5.73;88.62;100673.00;6238143;28;20209;-78
2020/12/04 12:56:30;;;;;;;3.17;3.07;;;;;;;5.46;89.76;100676.41;6236981;28;20210;-78
2020/12/04 12:59:34;;;;;;;3.93;3.67;;;;;;;5.46;90.87;100687.25;6238213;28;20210;-78
2020/12/04 13:02:39;;;;;;;3.80;3.60;;;;;;;5.55;91.27;100675.28;6240689;28;20242;-79
2020/12/04 13:05:42;;;;;;;4.10;3.80;;;;;;;5.63;90.92;100683.28;6254452;28;20213;-81
2020/12/04 13:08:46;;;;;;;3.70;3.50;;;;;;;5.57;90.63;100678.66;6263667;28;20250;-78
2020/12/04 13:11:52;;;;;;;3.73;3.43;;;;;;;5.69;90.13;100671.72;6254014;28;20287;-80
2020/12/04 13:14:55;;;;;;;3.67;3.30;;;;;;;5.66;90.01;100674.81;6247025;28;20642;-79
2020/12/04 13:17:59;;;;;;;4.43;4.03;;;;;;;5.44;91.33;100676.63;6245345;28;20200;-80
2020/12/04 13:21:03;;;;;;;3.73;3.43;;;;;;;5.47;90.02;100670.00;6240739;28;20234;-79
2020/12/04 13:24:08;;;;;;;3.57;3.23;;;;;;;4.82;91.30;100568.00;6250655;28;20249;-79
2020/12/04 13:27:18;;;;;;;4.07;3.77;;;;;;;5.12;91.72;100624.75;6275431;28;20209;-80
2020/12/04 13:30:24;;;;;;;3.90;3.50;;;;;;;5.43;91.10;100672.22;6268125;28;20234;-79
2020/12/04 13:33:35;;;;;;;3.80;3.60;;;;;;;5.53;88.73;100655.69;6267786;28;20237;-79
2020/12/04 13:36:39;;;;;;;3.67;3.47;;;;;;;5.44;89.36;100652.28;6268874;28;20217;-79
2020/12/04 13:39:42;;;;;;;3.57;3.37;;;;;;;5.40;89.67;100647.41;6268036;28;20216;-79
2020/12/04 13:42:46;;;;;;;3.47;3.27;;;;;;;5.48;88.91;100650.00;6251479;28;20198;-76
2020/12/04 13:45:52;;;;;;;4.40;3.23;;;;;;;5.55;89.49;100669.88;6271785;28;20244;-79
2020/12/04 13:48:56;;;;;;;3.13;2.93;;;;;;;5.27;91.02;100671.56;6270006;28;20224;-79
2020/12/04 13:51:59;;;;;;;2.70;2.70;;;;;;;5.48;89.57;100663.53;6267778;28;20338;-78
2020/12/04 13:55:02;;;;;;;3.33;3.03;;;;;;;5.26;90.20;100642.84;6270027;28;20206;-79
2020/12/04 13:58:13;;;;;;;3.23;3.03;;;;;;;5.23;91.03;100667.56;6261041;28;20199;-79
2020/12/04 14:01:19;;;;;;;3.70;3.40;;;;;;;5.21;92.10;100669.63;6257914;28;20648;-79
2020/12/04 14:04:32;;;;;;;2.77;2.60;;;;;;;5.21;91.74;100650.69;6251616;28;20206;-81
2020/12/04 14:07:35;;;;;;;3.00;2.90;;;;;;;5.40;90.46;100671.75;6266270;28;20287;-80
2020/12/04 14:10:39;;;;;;;3.20;3.00;;;;;;;5.49;89.60;100667.94;6271452;28;20244;-79
2020/12/04 14:13:44;;;;;;;3.20;3.00;;;;;;;5.23;90.24;100659.44;6269739;28;20201;-78
2020/12/04 14:16:48;;;;;;;3.20;3.10;;;;;;;5.34;91.47;100667.09;6265501;28;20194;-78
2020/12/04 14:19:53;;;;;;;3.03;2.90;;;;;;;5.36;90.25;100670.47;6265368;28;20212;-78
2020/12/04 14:22:57;;;;;;;2.60;2.60;;;;;;;5.36;89.70;100667.75;6267681;28;21187;-79
2020/12/04 14:26:00;;;;;;;2.70;2.57;;;;;;;5.24;89.37;100658.44;6272041;28;20229;-80
2020/12/04 14:29:08;;;;;;;2.60;2.50;;;;;;;5.23;89.40;100668.41;6267841;28;20202;-78
2020/12/04 14:32:14;;;;;;;2.60;2.60;;;;;;;5.14;91.26;100665.97;6270994;28;20203;-78